createdAt,value
2022-12-19T00:00:36.646Z,39.42
2022-12-19T00:03:07.883Z,51.63
2022-12-19T00:05:38.844Z,49.25
2022-12-19T00:08:16.823Z,41.65
2022-12-19T00:10:56.014Z,41.33
2022-12-19T00:13:24.598Z,38.67
2022-12-19T00:15:52.904Z,36.70
2022-12-19T00:18:21.601Z,44.33
2022-12-19T00:20:56.591Z,41.65
2022-12-19T00:23:24.809Z,37.08
2022-12-19T00:25:54.142Z,40.92
2022-12-19T00:28:23.807Z,38.05
2022-12-19T00:30:51.847Z,35.67
2022-12-19T00:33:23.110Z,43.28
2022-12-19T00:35:51.147Z,42.33
2022-12-19T00:38:19.063Z,40.20
2022-12-19T00:40:47.389Z,42.00
2022-12-19T00:43:16.756Z,51.60
2022-12-19T00:45:45.073Z,37.83
2022-12-19T00:48:13.168Z,30.90
2022-12-19T00:50:43.872Z,33.85
2022-12-19T00:53:11.939Z,34.75
2022-12-19T00:55:40.287Z,38.58
2022-12-19T00:58:08.181Z,33.50
2022-12-19T01:00:37.646Z,33.63
2022-12-19T01:03:05.866Z,40.60
2022-12-19T01:05:33.982Z,35.03
2022-12-19T01:08:02.471Z,40.30
2022-12-19T01:10:30.545Z,28.73
2022-12-19T01:12:57.669Z,34.10
2022-12-19T01:15:25.852Z,39.55
2022-12-19T01:17:55.336Z,32.08
2022-12-19T01:20:28.994Z,43.28
2022-12-19T01:22:58.832Z,36.55
2022-12-19T01:25:28.428Z,32.25
2022-12-19T01:27:56.736Z,43.17
2022-12-19T01:30:25.014Z,40.42
2022-12-19T01:32:55.376Z,41.03
2022-12-19T01:35:23.509Z,33.10
2022-12-19T01:37:51.676Z,38.50
2022-12-19T01:40:20.188Z,33.47
2022-12-19T01:42:48.994Z,34.67
2022-12-19T01:45:36.689Z,37.03
2022-12-19T01:48:19.518Z,39.15
2022-12-19T01:51:01.167Z,44.85
2022-12-19T01:53:34.861Z,44.10
2022-12-19T01:56:09.308Z,34.75
2022-12-19T01:58:39.115Z,37.40
2022-12-19T02:01:07.271Z,38.72
2022-12-19T02:03:39.128Z,35.80
2022-12-19T02:06:08.451Z,33.38
2022-12-19T02:08:37.833Z,36.75
2022-12-19T02:11:05.999Z,38.83
2022-12-19T02:13:34.137Z,29.27
2022-12-19T02:16:10.202Z,34.95
2022-12-19T02:18:49.269Z,34.83
2022-12-19T02:21:24.362Z,39.90
2022-12-19T02:24:24.800Z,39.78
2022-12-19T02:27:01.539Z,34.05
2022-12-19T02:30:06.435Z,27.95
2022-12-19T02:32:43.301Z,35.50
2022-12-19T02:35:16.481Z,35.08
2022-12-19T02:37:49.078Z,35.03
2022-12-19T02:40:22.577Z,36.13
2022-12-19T02:42:55.691Z,40.72
2022-12-19T02:45:28.910Z,34.20
2022-12-19T02:48:03.269Z,39.20
2022-12-19T02:50:39.447Z,38.70
2022-12-19T02:53:07.808Z,34.10
2022-12-19T02:55:44.973Z,35.33
2022-12-19T02:58:52.048Z,36.88
2022-12-19T03:01:35.610Z,38.22
2022-12-19T03:04:15.715Z,30.80
2022-12-19T03:06:49.801Z,40.00
2022-12-19T03:09:25.330Z,38.40
2022-12-19T03:12:01.705Z,34.72
2022-12-19T03:14:32.298Z,37.47
2022-12-19T03:17:05.688Z,30.70
2022-12-19T03:19:37.103Z,41.42
2022-12-19T03:22:05.024Z,36.67
2022-12-19T03:24:33.144Z,35.55
2022-12-19T03:27:04.105Z,36.92
2022-12-19T03:29:35.026Z,41.45
2022-12-19T03:32:06.754Z,39.80
2022-12-19T03:34:40.259Z,34.45
2022-12-19T03:37:16.639Z,39.08
2022-12-19T03:39:48.920Z,38.40
2022-12-19T03:42:37.045Z,35.80
2022-12-19T03:45:07.381Z,32.78
2022-12-19T03:47:39.139Z,35.55
2022-12-19T03:50:10.371Z,37.78
2022-12-19T03:52:46.873Z,34.45
2022-12-19T03:55:19.633Z,35.20
2022-12-19T03:57:52.459Z,37.45
2022-12-19T04:00:22.188Z,37.97
2022-12-19T04:02:52.253Z,31.77
2022-12-19T04:05:24.375Z,37.88
2022-12-19T04:07:55.777Z,37.28
2022-12-19T04:10:27.418Z,42.65
2022-12-19T04:13:00.127Z,41.22
2022-12-19T04:15:35.832Z,37.55
2022-12-19T04:18:06.352Z,45.58
2022-12-19T04:20:39.720Z,36.88
2022-12-19T04:23:12.889Z,35.90
2022-12-19T04:25:44.136Z,40.63
2022-12-19T04:28:18.470Z,35.88
2022-12-19T04:30:47.581Z,34.15
2022-12-19T04:33:16.028Z,33.60
2022-12-19T04:35:45.591Z,36.85
2022-12-19T04:38:13.607Z,39.13
2022-12-19T04:40:41.985Z,36.47
2022-12-19T04:43:10.237Z,44.35
2022-12-19T04:45:38.407Z,43.13
2022-12-19T04:48:08.202Z,40.63
2022-12-19T04:50:37.204Z,38.33
2022-12-19T04:53:07.457Z,40.00
2022-12-19T04:55:35.416Z,38.47
2022-12-19T04:58:04.831Z,40.60
2022-12-19T05:00:32.885Z,40.88
2022-12-19T05:03:00.988Z,40.40
2022-12-19T05:05:29.401Z,38.75
2022-12-19T05:07:57.501Z,40.38
2022-12-19T05:10:26.888Z,43.40
2022-12-19T05:12:55.795Z,37.13
2022-12-19T05:15:23.916Z,39.10
2022-12-19T05:17:51.811Z,38.88
2022-12-19T05:20:20.269Z,44.85
2022-12-19T05:22:48.291Z,39.22
2022-12-19T05:25:16.686Z,35.30
2022-12-19T05:27:45.981Z,38.83
2022-12-19T05:30:14.714Z,37.22
2022-12-19T05:32:42.652Z,39.40
2022-12-19T05:35:10.697Z,30.70
2022-12-19T05:37:38.820Z,32.53
2022-12-19T05:40:07.963Z,33.22
2022-12-19T05:42:36.027Z,36.75
2022-12-19T05:45:05.945Z,36.33
2022-12-19T05:47:33.879Z,30.80
2022-12-19T05:50:02.171Z,34.85
2022-12-19T05:52:30.128Z,29.95
2022-12-19T05:54:58.283Z,33.70
2022-12-19T05:57:27.075Z,34.80
2022-12-19T05:59:55.281Z,35.90
2022-12-19T06:02:24.817Z,28.23
2022-12-19T06:04:53.315Z,33.53
2022-12-19T06:07:21.565Z,37.33
2022-12-19T06:09:49.692Z,33.83
2022-12-19T06:12:17.709Z,34.63
2022-12-19T06:14:45.815Z,35.83
2022-12-19T06:17:13.737Z,27.33
2022-12-19T06:19:43.256Z,28.50
2022-12-19T06:22:11.192Z,31.65
2022-12-19T06:24:39.111Z,31.60
2022-12-19T06:27:07.192Z,33.92
2022-12-19T06:29:35.250Z,30.48
2022-12-19T06:32:03.332Z,35.10
2022-12-19T06:35:02.211Z,28.00
2022-12-19T06:37:20.624Z,35.97
2022-12-19T06:39:48.588Z,34.65
2022-12-19T06:42:24.689Z,25.43
2022-12-19T06:44:54.153Z,29.13
2022-12-19T06:47:23.450Z,32.80
2022-12-19T06:49:51.625Z,33.77
2022-12-19T06:52:21.084Z,29.67
2022-12-19T06:54:49.017Z,33.83
2022-12-19T06:57:17.157Z,35.30
2022-12-19T06:59:45.457Z,33.17
2022-12-19T07:02:24.269Z,31.90
2022-12-19T07:04:56.631Z,29.93
2022-12-19T07:07:25.845Z,28.80
2022-12-19T07:09:53.921Z,29.15
2022-12-19T07:12:21.817Z,29.60
2022-12-19T07:14:53.298Z,30.67
2022-12-19T07:17:23.392Z,23.07
2022-12-19T07:19:51.724Z,32.90
2022-12-19T07:26:08.824Z,30.48
2022-12-19T07:28:37.949Z,29.25
2022-12-19T07:40:10.128Z,31.40
2022-12-19T07:55:37.912Z,32.07
2022-12-19T07:58:06.164Z,27.40
2022-12-19T08:00:34.179Z,29.77
2022-12-19T08:03:04.677Z,25.93
2022-12-19T08:05:35.032Z,25.90
2022-12-19T08:08:03.580Z,28.30
2022-12-19T08:10:32.703Z,26.47
2022-12-19T08:13:01.029Z,28.42
2022-12-19T08:15:32.617Z,25.07
2022-12-19T08:18:02.905Z,27.27
2022-12-19T08:20:37.805Z,26.02
2022-12-19T08:23:14.321Z,26.50
2022-12-19T08:25:45.923Z,27.73
2022-12-19T08:28:13.844Z,29.97
2022-12-19T08:30:43.427Z,28.77
2022-12-19T08:33:13.666Z,28.23
2022-12-19T08:35:43.861Z,25.80
2022-12-19T08:38:12.888Z,32.93
2022-12-19T08:40:47.679Z,24.83
2022-12-19T08:43:16.067Z,24.17
2022-12-19T08:45:45.645Z,27.30
2022-12-19T08:52:18.894Z,24.37
2022-12-19T08:54:54.014Z,22.30
2022-12-19T08:57:22.278Z,22.73
2022-12-19T08:59:53.020Z,23.77
2022-12-19T09:02:22.458Z,22.00
2022-12-19T09:06:01.028Z,25.17
2022-12-19T09:07:40.884Z,25.30
2022-12-19T09:10:09.643Z,20.83
2022-12-19T09:12:37.690Z,19.93
2022-12-19T09:15:06.461Z,23.30
2022-12-19T09:17:35.561Z,15.10
2022-12-19T09:20:03.666Z,16.90
2022-12-19T09:22:31.908Z,15.77
2022-12-19T09:25:01.375Z,19.23
2022-12-19T09:27:29.505Z,17.70
2022-12-19T09:29:57.630Z,17.13
2022-12-19T09:32:25.564Z,15.43
2022-12-19T09:34:53.967Z,14.10
2022-12-19T09:37:22.110Z,17.17
2022-12-19T09:39:50.817Z,16.53
2022-12-19T09:42:42.111Z,16.67
2022-12-19T09:57:36.914Z,17.83
2022-12-19T10:00:07.883Z,12.10
2022-12-19T10:02:43.550Z,13.65
2022-12-19T10:05:33.793Z,12.57
2022-12-19T10:08:16.686Z,16.97
2022-12-19T10:12:36.267Z,15.13
2022-12-19T10:13:59.412Z,23.17
2022-12-19T10:16:37.502Z,15.63
2022-12-19T10:19:10.228Z,16.07
2022-12-19T10:22:16.424Z,18.30
2022-12-19T10:25:09.413Z,13.40
2022-12-19T10:27:59.524Z,18.30
2022-12-19T10:30:32.857Z,20.40
2022-12-19T10:33:18.300Z,14.60
2022-12-19T10:35:54.166Z,18.93
2022-12-19T10:38:33.312Z,17.33
2022-12-19T10:41:14.949Z,18.57
2022-12-19T10:43:52.296Z,20.27
2022-12-19T10:46:31.447Z,26.17
2022-12-19T10:49:00.515Z,21.50
2022-12-19T10:51:32.363Z,25.53
2022-12-19T10:54:02.305Z,25.63
2022-12-19T10:56:37.391Z,21.70
2022-12-19T10:59:17.561Z,24.30
2022-12-19T11:01:49.337Z,20.80
2022-12-19T11:04:32.343Z,21.07
2022-12-19T11:07:18.300Z,18.53
2022-12-19T11:09:54.729Z,20.50
2022-12-19T11:18:04.706Z,21.17
2022-12-19T11:19:43.749Z,18.70
2022-12-19T11:24:55.722Z,20.50
2022-12-19T11:29:33.480Z,18.93
2022-12-19T11:30:05.416Z,28.73
2022-12-19T11:30:37.376Z,17.97
2022-12-19T11:32:43.861Z,19.67
2022-12-19T11:35:24.237Z,18.97
2022-12-19T11:37:56.194Z,20.50
2022-12-19T11:40:34.046Z,24.50
2022-12-19T11:43:43.106Z,20.47
2022-12-19T11:46:02.067Z,19.70
2022-12-19T11:48:38.647Z,21.80
2022-12-19T11:51:18.744Z,21.57
2022-12-19T11:53:56.809Z,27.07
2022-12-19T11:56:28.026Z,26.73
2022-12-19T11:58:58.972Z,26.37
2022-12-19T12:01:52.468Z,26.27
2022-12-19T12:04:46.125Z,25.40
2022-12-19T12:07:32.502Z,26.70
2022-12-19T12:13:43.537Z,29.60
2022-12-19T12:19:40.608Z,26.70
2022-12-19T12:28:23.034Z,21.67
2022-12-19T12:31:08.709Z,25.17
2022-12-19T12:31:23.723Z,26.97
2022-12-19T12:31:58.098Z,31.67
2022-12-19T12:32:00.570Z,28.33
2022-12-19T12:35:48.613Z,24.93
2022-12-19T12:40:06.934Z,26.37
2022-12-19T12:42:46.649Z,26.77
2022-12-19T12:45:25.038Z,28.67
2022-12-19T12:47:54.388Z,23.67
2022-12-19T12:50:25.194Z,23.70
2022-12-19T12:52:56.290Z,24.27
2022-12-19T12:55:29.737Z,27.50
2022-12-19T12:57:58.559Z,23.20
2022-12-19T13:00:29.439Z,25.83
2022-12-19T13:03:05.782Z,25.53
2022-12-19T13:05:40.517Z,20.90
2022-12-19T13:08:33.578Z,29.20
2022-12-19T13:11:04.095Z,24.63
2022-12-19T13:13:53.466Z,27.10
2022-12-19T13:16:57.053Z,26.47
2022-12-19T13:19:29.073Z,29.00
2022-12-19T13:22:17.716Z,30.37
2022-12-19T13:24:47.872Z,27.20
2022-12-19T13:27:39.385Z,25.70
2022-12-19T13:30:19.357Z,27.13
2022-12-19T13:33:10.537Z,25.47
2022-12-19T13:37:55.698Z,28.30
2022-12-19T13:39:59.204Z,26.00
2022-12-19T13:41:45.750Z,25.67
2022-12-19T13:44:15.444Z,24.40
2022-12-19T13:46:45.401Z,28.83
2022-12-19T13:49:19.911Z,27.47
2022-12-19T13:51:50.201Z,34.63
2022-12-19T13:54:24.010Z,28.43
2022-12-19T13:56:53.238Z,25.90
2022-12-19T13:59:24.977Z,30.07
2022-12-19T14:01:54.471Z,28.20
2022-12-19T14:04:30.454Z,31.20
2022-12-19T14:07:02.420Z,29.50
2022-12-19T14:11:31.692Z,25.20
2022-12-19T14:13:58.869Z,35.67
2022-12-19T14:15:38.005Z,30.17
2022-12-19T14:18:42.754Z,30.00
2022-12-19T14:22:11.469Z,32.33
2022-12-19T14:24:13.290Z,30.85
2022-12-19T14:28:22.086Z,29.47
2022-12-19T14:29:52.182Z,25.80
2022-12-19T14:33:40.743Z,26.43
2022-12-19T14:36:08.488Z,29.40
2022-12-19T14:39:19.586Z,26.80
2022-12-19T14:41:07.960Z,25.97
2022-12-19T14:44:00.339Z,25.97
2022-12-19T14:54:10.122Z,25.10
2022-12-19T14:54:13.170Z,26.73
2022-12-19T14:54:37.572Z,29.70
2022-12-19T14:56:08.586Z,32.00
2022-12-19T14:58:52.606Z,32.87
2022-12-19T15:01:25.455Z,32.67
2022-12-19T15:04:52.641Z,29.00
2022-12-19T15:07:09.461Z,30.40
2022-12-19T15:10:57.940Z,26.00
2022-12-19T15:14:50.871Z,30.80
2022-12-19T15:15:45.723Z,31.93
2022-12-19T15:18:39.871Z,31.90
2022-12-19T15:21:11.196Z,35.00
2022-12-19T15:23:40.810Z,30.33
2022-12-19T15:26:14.067Z,28.60
2022-12-19T15:28:44.140Z,34.90
2022-12-19T15:31:28.320Z,31.53
2022-12-19T15:36:44.464Z,29.97
2022-12-19T15:39:15.250Z,32.97
2022-12-19T15:41:43.975Z,31.33
2022-12-19T15:44:17.988Z,36.17
2022-12-19T15:46:49.262Z,34.67
2022-12-19T15:49:18.601Z,34.67
2022-12-19T15:51:47.244Z,33.17
2022-12-19T15:57:05.478Z,35.60
2022-12-19T15:59:37.263Z,44.47
2022-12-19T16:02:16.119Z,39.73
2022-12-19T16:04:44.634Z,38.67
2022-12-19T16:07:16.974Z,41.43
2022-12-19T16:09:46.919Z,39.20
2022-12-19T16:12:16.846Z,36.97
2022-12-19T16:14:46.383Z,39.67
2022-12-19T16:17:18.956Z,38.90
2022-12-19T16:19:47.079Z,36.47
2022-12-19T16:22:20.964Z,37.73
2022-12-19T16:24:50.765Z,41.00
2022-12-19T16:27:25.739Z,35.67
2022-12-19T16:29:55.432Z,39.63
2022-12-19T16:32:25.510Z,33.23
2022-12-19T16:34:54.591Z,33.73
2022-12-19T16:37:25.859Z,33.17
2022-12-19T16:39:59.835Z,31.40
2022-12-19T16:42:28.254Z,35.63
2022-12-19T16:44:56.887Z,29.30
2022-12-19T16:47:24.829Z,36.23
2022-12-19T16:49:52.939Z,31.00
2022-12-19T16:52:21.088Z,41.20
2022-12-19T16:54:50.958Z,40.10
2022-12-19T16:57:22.637Z,52.87
2022-12-19T16:59:51.429Z,39.77
2022-12-19T17:02:41.582Z,39.30
2022-12-19T17:05:17.248Z,36.90
2022-12-19T17:07:45.775Z,35.80
2022-12-19T17:10:14.017Z,37.10
2022-12-19T17:12:44.297Z,28.60
2022-12-19T17:15:22.975Z,36.93
2022-12-19T17:17:51.739Z,43.93
2022-12-19T17:20:21.780Z,45.03
2022-12-19T17:22:50.763Z,46.30
2022-12-19T17:25:21.924Z,42.27
2022-12-19T17:27:52.561Z,53.70
2022-12-19T17:30:21.132Z,42.53
2022-12-19T17:32:51.959Z,39.10
2022-12-19T17:35:27.538Z,37.70
2022-12-19T17:37:57.872Z,36.17
2022-12-19T17:40:27.827Z,30.33
2022-12-19T17:42:57.904Z,36.97
2022-12-19T17:45:27.077Z,30.95
2022-12-19T17:48:02.261Z,31.30
2022-12-19T17:50:33.097Z,32.90
2022-12-19T17:53:01.397Z,35.50
2022-12-19T17:55:30.742Z,33.07
2022-12-19T17:58:00.631Z,33.40
2022-12-19T18:00:31.235Z,33.20
2022-12-19T18:03:02.269Z,43.10
2022-12-19T18:05:33.880Z,24.73
2022-12-19T18:08:01.998Z,31.07
2022-12-19T18:10:32.288Z,25.87
2022-12-19T18:13:01.812Z,25.97
2022-12-19T18:15:30.021Z,22.20
2022-12-19T18:17:59.042Z,24.17
2022-12-19T18:20:31.800Z,19.47
2022-12-19T18:23:01.490Z,25.73
2022-12-19T18:25:32.482Z,18.40
2022-12-19T18:28:02.726Z,16.70
2022-12-19T18:30:31.112Z,22.93
2022-12-19T18:33:01.402Z,19.37
2022-12-19T18:35:35.002Z,17.93
2022-12-19T18:38:06.355Z,18.40
2022-12-19T18:40:34.940Z,19.93
2022-12-19T18:43:04.611Z,18.50
2022-12-19T18:45:40.319Z,20.57
2022-12-19T18:48:13.121Z,19.53
2022-12-19T18:50:41.283Z,18.47
2022-12-19T18:53:12.297Z,16.17
2022-12-19T18:55:40.318Z,19.50
2022-12-19T18:58:09.744Z,17.27
2022-12-19T19:00:39.574Z,16.73
2022-12-19T19:03:14.348Z,18.47
2022-12-19T19:05:43.307Z,15.20
2022-12-19T19:08:18.473Z,17.43
2022-12-19T19:10:48.486Z,15.50
2022-12-19T19:13:20.123Z,18.57
2022-12-19T19:15:50.269Z,16.37
2022-12-19T19:18:22.051Z,15.10
2022-12-19T19:20:55.628Z,14.80
2022-12-19T19:23:30.661Z,14.40
2022-12-19T19:25:58.554Z,12.83
2022-12-19T19:28:27.818Z,15.47
2022-12-19T19:30:56.786Z,14.73
2022-12-19T19:33:28.864Z,14.70
2022-12-19T19:36:05.996Z,17.03
2022-12-19T19:38:37.789Z,21.83
2022-12-19T19:41:06.800Z,14.97
2022-12-19T19:43:36.076Z,19.73
2022-12-19T19:46:04.304Z,17.80
2022-12-19T19:48:32.773Z,16.27
2022-12-19T19:51:00.703Z,21.93
2022-12-19T19:53:28.842Z,18.70
2022-12-19T19:55:57.704Z,17.07
2022-12-19T19:58:25.717Z,17.80
2022-12-19T20:00:56.911Z,17.53
2022-12-19T20:03:25.409Z,17.83
2022-12-19T20:05:59.806Z,14.10
2022-12-19T20:08:32.274Z,17.93
2022-12-19T20:11:04.918Z,20.27
2022-12-19T20:13:33.523Z,20.07
2022-12-19T20:16:07.458Z,20.17
2022-12-19T20:18:35.870Z,17.83
2022-12-19T20:21:09.186Z,22.20
2022-12-19T20:23:41.192Z,22.90
2022-12-19T20:26:09.044Z,24.30
2022-12-19T20:28:40.984Z,26.13
2022-12-19T20:31:15.276Z,24.30
2022-12-19T20:33:43.209Z,26.13
2022-12-19T20:36:12.740Z,28.30
2022-12-19T20:38:40.971Z,25.30
2022-12-19T20:41:09.520Z,33.17
2022-12-19T20:43:38.903Z,31.87
2022-12-19T20:46:09.065Z,22.10
2022-12-19T20:48:38.948Z,24.60
2022-12-19T20:51:07.708Z,20.87
2022-12-19T20:53:37.482Z,25.03
2022-12-19T20:56:06.827Z,28.03
2022-12-19T20:58:37.487Z,31.27
2022-12-19T21:01:07.818Z,22.73
2022-12-19T21:03:37.017Z,18.47
2022-12-19T21:06:07.381Z,17.37
2022-12-19T21:08:36.475Z,17.50
2022-12-19T21:11:05.461Z,22.23
2022-12-19T21:13:34.008Z,22.30
2022-12-19T21:16:07.149Z,24.20
2022-12-19T21:18:36.042Z,23.63
2022-12-19T21:21:06.037Z,24.67
2022-12-19T21:23:34.106Z,21.80
2022-12-19T21:26:04.606Z,23.90
2022-12-19T21:28:33.082Z,18.67
2022-12-19T21:31:03.509Z,26.77
2022-12-19T21:33:31.578Z,24.40
2022-12-19T21:36:05.781Z,21.33
2022-12-19T21:38:35.173Z,23.70
2022-12-19T21:41:04.312Z,31.47
2022-12-19T21:43:33.427Z,21.30
2022-12-19T21:46:09.710Z,21.67
2022-12-19T21:48:39.401Z,25.43
2022-12-19T21:51:07.974Z,24.90
2022-12-19T21:53:38.636Z,22.80
2022-12-19T21:56:08.828Z,23.30
2022-12-19T21:58:36.719Z,21.67
2022-12-19T22:01:08.370Z,22.90
2022-12-19T22:03:36.761Z,22.50
2022-12-19T22:06:05.346Z,25.43
2022-12-19T22:08:33.287Z,24.93
2022-12-19T22:11:03.292Z,26.33
2022-12-19T22:13:32.168Z,23.37
2022-12-19T22:16:03.899Z,25.53
2022-12-19T22:18:31.815Z,22.43
2022-12-19T22:21:00.127Z,25.33
2022-12-19T22:23:29.109Z,30.73
2022-12-19T22:26:09.353Z,26.23
2022-12-19T22:28:39.995Z,28.67
2022-12-19T22:31:17.847Z,29.43
2022-12-19T22:33:46.290Z,24.03
2022-12-19T22:36:15.697Z,21.20
2022-12-19T22:38:46.911Z,18.83
2022-12-19T22:41:16.924Z,18.63
2022-12-19T22:43:45.822Z,19.80
2022-12-19T22:46:14.987Z,19.67
2022-12-19T22:48:43.399Z,16.20
2022-12-19T22:51:11.975Z,18.10
2022-12-19T22:53:40.803Z,16.23
2022-12-19T22:56:12.872Z,13.10
2022-12-19T22:58:44.060Z,16.67
2022-12-19T23:01:14.412Z,11.90
2022-12-19T23:03:42.820Z,13.43
2022-12-19T23:06:11.284Z,14.77
2022-12-19T23:08:39.867Z,11.73
2022-12-19T23:11:10.944Z,13.70
2022-12-19T23:13:39.340Z,12.90
2022-12-19T23:16:09.567Z,13.80
2022-12-19T23:18:38.472Z,14.80
2022-12-19T23:21:09.804Z,14.60
2022-12-19T23:23:39.450Z,10.50
2022-12-19T23:26:15.081Z,16.17
2022-12-19T23:28:43.696Z,12.43
2022-12-19T23:31:14.813Z,12.90
2022-12-19T23:33:42.880Z,13.20
2022-12-19T23:36:11.228Z,12.37
2022-12-19T23:38:39.332Z,11.57
2022-12-19T23:41:09.377Z,12.10
2022-12-19T23:43:38.322Z,11.23
2022-12-19T23:46:08.043Z,13.33
2022-12-19T23:48:37.560Z,8.70
2022-12-19T23:51:08.431Z,9.57
2022-12-19T23:53:36.577Z,13.40
2022-12-19T23:56:06.997Z,14.00
2022-12-19T23:58:34.975Z,11.77
